^^
Station Historical Data
Daily Summary for October 28, 2017 Units:  Metric    English   Both
« Previous Day
Next Day »
Daily Weekly Monthly Yearly Custom
  High: Low: Average:
Temperature: 33.2 °C 15.7 °C 22.5 °C
Dew Point: -7.1 °C -15.4 °C -12.3 °C
Humidity: 11% 6% 9%
Wind Speed: 17.7km/h 0km/h 2.7km/h
Wind Gust: 24.1km/h - -
Wind- - SSE
Pressure: 1013.8 hPa 1006 hPa -
Precipitation: 0 mm    
Historical Graphs
 
 
Tabular Data for October 28, 2017
Time Temperature Dew Point Pressure Wind Wind Speed Wind Gust Humidity Rainfall Rate (Hourly) solar Conditions
01:18 21.1 °C -14.5 °C 1012.8 hPa East 7.9 km/h 16.1 km/h 8% 0 mm 0.0 W/m2
01:23 21.1 °C -14.5 °C 1013.1 hPa East 9.7 km/h 20.9 km/h 8% 0 mm 0.0 W/m2
01:28 21 °C -14.6 °C 1012.8 hPa East 7.9 km/h 12.9 km/h 8% 0 mm 0.0 W/m2
01:33 20.9 °C -14.6 °C 1012.8 hPa East 4.7 km/h 6.4 km/h 8% 0 mm 0.0 W/m2
01:38 20.7 °C -13.3 °C 1012.8 hPa Calm     9% 0 mm 0.0 W/m2
01:43 20.5 °C -13.5 °C 1012.8 hPa Calm     9% 0 mm 0.0 W/m2
01:48 20.4 °C -13.6 °C 1012.8 hPa East 4.7 km/h 8 km/h 9% 0 mm 0.0 W/m2
01:58 20.1 °C -13.8 °C 1012.8 hPa Calm     9% 0 mm 0.0 W/m2
02:03 19.9 °C -13.9 °C 1012.8 hPa Calm     9% 0 mm 0.0 W/m2
02:09 19.6 °C -14.2 °C 1012.8 hPa ENE 11.1 km/h 12.9 km/h 9% 0 mm 0.0 W/m2
02:19 19.7 °C -14.1 °C 1012.8 hPa East 17.7 km/h 19.3 km/h 9% 0 mm 0.0 W/m2
02:24 19.8 °C -14 °C 1012.8 hPa East 13 km/h 19.3 km/h 9% 0 mm 0.0 W/m2
02:34 19.9 °C -13.9 °C 1012.8 hPa East 14.3 km/h 17.7 km/h 9% 0 mm 0.0 W/m2
02:39 19.8 °C -14 °C 1012.8 hPa East 11.1 km/h 16.1 km/h 9% 0 mm 0.0 W/m2
02:44 19.8 °C -14 °C 1012.8 hPa East 7.9 km/h 17.7 km/h 9% 0 mm 0.0 W/m2
02:49 19.7 °C -14.1 °C 1012.8 hPa East 14.3 km/h 14.5 km/h 9% 0 mm 0.0 W/m2
02:54 19.6 °C -14.2 °C 1012.8 hPa East 9.7 km/h 12.9 km/h 9% 0 mm 0.0 W/m2
02:59 19.6 °C -14.2 °C 1012.8 hPa East 6.4 km/h 12.9 km/h 9% 0 mm 0.0 W/m2
03:04 19.5 °C -14.2 °C 1012.8 hPa Calm   9.7 km/h 9% 0 mm 0.0 W/m2
03:09 19.4 °C -13 °C 1012.8 hPa Calm     10% 0 mm 0.0 W/m2
03:19 19.1 °C -13.3 °C 1012.8 hPa Calm     10% 0 mm 0.0 W/m2
03:24 19.1 °C -13.3 °C 1012.8 hPa East 9.7 km/h 9.7 km/h 10% 0 mm 0.0 W/m2
03:35 19 °C -13.3 °C 1012.8 hPa Calm     10% 0 mm 0.0 W/m2
03:40 18.8 °C -13.5 °C 1012.8 hPa Calm     10% 0 mm 0.0 W/m2
03:45 18.6 °C -13.6 °C 1012.8 hPa Calm     10% 0 mm 0.0 W/m2
03:50 18.6 °C -13.6 °C 1012.8 hPa Calm     10% 0 mm 0.0 W/m2
03:55 18.4 °C -13.8 °C 1012.8 hPa Calm     10% 0 mm 0.0 W/m2
04:01 18.2 °C -13.9 °C 1012.8 hPa Calm     10% 0 mm 0.0 W/m2
04:06 18 °C -14.1 °C 1012.8 hPa Calm     10% 0 mm 0.0 W/m2
04:11 17.8 °C -13.1 °C 1012.8 hPa Calm     11% 0 mm 0.0 W/m2
04:16 17.7 °C -13.2 °C 1012.8 hPa Calm     11% 0 mm 0.0 W/m2
04:21 17.4 °C -14.6 °C 1012.8 hPa Calm     10% 0 mm 0.0 W/m2
04:26 17.3 °C -13.5 °C 1012.8 hPa Calm     11% 0 mm 0.0 W/m2
04:32 17.2 °C -13.6 °C 1012.8 hPa Calm     11% 0 mm 0.0 W/m2
04:42 16.9 °C -14.9 °C 1012.8 hPa Calm     10% 0 mm 0.0 W/m2
04:47 16.8 °C -15 °C 1012.8 hPa Calm     10% 0 mm 0.0 W/m2
04:53 16.7 °C -15.1 °C 1012.8 hPa Calm     10% 0 mm 0.0 W/m2
04:58 16.7 °C -15.1 °C 1012.8 hPa Calm     10% 0 mm 0.0 W/m2
05:08 16.3 °C -15.4 °C 1012.8 hPa Calm     10% 0 mm 0.0 W/m2
05:18 16.1 °C -14.4 °C 1012.8 hPa Calm     11% 0 mm 0.0 W/m2
05:29 15.7 °C -14.7 °C 1012.8 hPa Calm     11% 0 mm 0.0 W/m2
05:35 15.7 °C -14.7 °C 1012.8 hPa Calm     11% 0 mm 0.0 W/m2
05:40 15.7 °C -14.7 °C 1012.8 hPa Calm     11% 0 mm 0.0 W/m2
05:50 15.9 °C -14.6 °C 1012.8 hPa Calm     11% 0 mm 0.0 W/m2
05:56 16.4 °C -14.2 °C 1012.8 hPa Calm     11% 0 mm 0.0 W/m2
06:06 16.5 °C -14.1 °C 1012.8 hPa Calm     11% 0 mm 5.0 W/m2
06:11 16.6 °C -14 °C 1012.8 hPa Calm     11% 0 mm 7.0 W/m2
06:16 16.7 °C -13.9 °C 1012.8 hPa Calm     11% 0 mm 11.0 W/m2
06:21 16.7 °C -13.9 °C 1013.1 hPa Calm     11% 0 mm 12.0 W/m2
06:26 16.8 °C -13.9 °C 1013.1 hPa Calm     11% 0 mm 16.0 W/m2
06:36 16.8 °C -13.9 °C 1013.1 hPa Calm     11% 0 mm 23.0 W/m2
06:42 17.7 °C -13.2 °C 1013.1 hPa Calm     11% 0 mm 39.0 W/m2
06:52 18.5 °C -13.7 °C 1013.1 hPa Calm   9.7 km/h 10% 0 mm 62.0 W/m2
06:57 18.8 °C -13.5 °C 1013.1 hPa Calm   4.8 km/h 10% 0 mm 74.0 W/m2
07:02 19 °C -13.3 °C 1013.1 hPa Calm   8 km/h 10% 0 mm 90.0 W/m2
07:12 19.3 °C -13.1 °C 1013.1 hPa Calm   1.6 km/h 10% 0 mm 105.0 W/m2
07:23 19.8 °C -12.7 °C 1013.1 hPa Calm     10% 0 mm 137.0 W/m2
07:33 20.7 °C -13.3 °C 1013.4 hPa Calm     9% 0 mm 186.0 W/m2
07:47 21.2 °C -13 °C 1013.4 hPa ENE 3.2 km/h 8 km/h 9% 0 mm 216.0 W/m2
07:53 21.6 °C -12.7 °C 1013.4 hPa ENE 4.7 km/h 8 km/h 9% 0 mm 248.0 W/m2
08:08 22.2 °C -13.7 °C 1013.4 hPa ENE 1.4 km/h 6.4 km/h 8% 0 mm 279.0 W/m2
08:19 22.9 °C -13.1 °C 1013.4 hPa Calm     8% 0 mm 315.0 W/m2
08:35 23.1 °C -13 °C 1013.8 hPa Calm     8% 0 mm 362.0 W/m2
08:50 23.3 °C -12.8 °C 1013.4 hPa Calm     8% 0 mm 410.0 W/m2
09:04 23.8 °C -14.1 °C 1013.4 hPa Calm     7% 0 mm 461.0 W/m2
09:11 24.1 °C -13.9 °C 1013.4 hPa Calm   9.7 km/h 7% 0 mm 483.0 W/m2
11:53 28.9 °C -12.3 °C 1011.4 hPa NNW 13 km/h 24.1 km/h 6% 0 mm 816.0 W/m2
12:20 29.8 °C -11.7 °C 1011.1 hPa Calm     6% 0 mm 835.0 W/m2
12:23 30.2 °C -11.4 °C 1010.7 hPa North 1.4 km/h 24.1 km/h 6% 0 mm 837.0 W/m2
12:29 30.3 °C -9.3 °C 1010.7 hPa North 6.4 km/h 11.3 km/h 7% 0 mm 837.0 W/m2
12:39 31 °C -10.8 °C 1010.4 hPa North 13 km/h 13 km/h 6% 0 mm 838.0 W/m2
12:54 30.7 °C -9.1 °C 1010 hPa North 1.4 km/h 22.5 km/h 7% 0 mm 837.0 W/m2
13:15 31.4 °C -8.5 °C 1010 hPa North 3.2 km/h 24.1 km/h 7% 0 mm 830.0 W/m2
13:30 31.2 °C -8.7 °C 1009.7 hPa Calm   22.5 km/h 7% 0 mm 819.0 W/m2
13:39 31.6 °C -8.4 °C 1009.4 hPa North 9.7 km/h 22.5 km/h 7% 0 mm 809.0 W/m2
13:54 31.9 °C -8.2 °C 1009 hPa North 9.7 km/h 17.7 km/h 7% 0 mm 793.0 W/m2
14:16 32.2 °C -8 °C 1009 hPa North 6.4 km/h 17.7 km/h 7% 0 mm 772.0 W/m2
14:31 32.1 °C -8 °C 1008.7 hPa North 6.4 km/h 14.5 km/h 7% 0 mm 747.0 W/m2
14:46 32.6 °C -7.7 °C 1008.4 hPa Calm     7% 0 mm 724.0 W/m2
15:00 32.4 °C -7.8 °C 1008 hPa NNW 13 km/h 22.5 km/h 7% 0 mm 686.0 W/m2
15:11 32.6 °C -7.7 °C 1008 hPa NNW 9.7 km/h 17.7 km/h 7% 0 mm 663.0 W/m2
15:27 32.9 °C -7.5 °C 1007.7 hPa NNW 1.4 km/h 3.2 km/h 7% 0 mm 626.0 W/m2
15:42 32.7 °C -7.6 °C 1007.3 hPa Calm     7% 0 mm 585.0 W/m2
15:57 33.2 °C -7.2 °C 1007.3 hPa Calm   11.3 km/h 7% 0 mm 547.0 W/m2
16:13 33.1 °C -7.3 °C 1007 hPa Calm     7% 0 mm 503.0 W/m2
16:28 32.8 °C -7.5 °C 1006.7 hPa Calm   3.2 km/h 7% 0 mm 459.0 W/m2
17:42 32.9 °C -7.5 °C 1006.3 hPa Calm     7% 0 mm 225.0 W/m2
18:06 32.7 °C -7.6 °C 1006 hPa Calm     7% 0 mm 155.0 W/m2
19:22 31 °C -7.1 °C 1006 hPa Calm     8% 0 mm 0.0 W/m2
19:33 29.4 °C -8.3 °C 1006.3 hPa Calm     8% 0 mm 0.0 W/m2
20:06 28 °C -7.8 °C 1006.3 hPa Calm     9% 0 mm 0.0 W/m2
20:16 28.1 °C -7.8 °C 1006.3 hPa Calm     9% 0 mm 0.0 W/m2
Canyon Roadhouse, Fishriver Canyon, Namibia
Compliments of Weather Underground - 2 mb